createdAt,value
2023-02-04T00:13:54.419Z,99.90
2023-02-04T00:47:00.136Z,99.90
2023-02-04T00:52:01.048Z,99.90
2023-02-04T00:54:28.054Z,99.90
2023-02-04T00:57:18.088Z,99.90
2023-02-04T01:10:06.160Z,99.90
2023-02-04T01:19:34.850Z,99.90
2023-02-04T01:22:01.628Z,99.90
2023-02-04T01:24:28.268Z,99.90
2023-02-04T01:26:56.933Z,99.90
2023-02-04T01:29:23.581Z,99.90
2023-02-04T01:31:50.443Z,99.90
2023-02-04T01:34:17.192Z,99.90
2023-02-04T01:36:45.544Z,99.90
2023-02-04T01:39:12.335Z,99.90
2023-02-04T01:41:40.961Z,99.90
2023-02-04T01:44:15.611Z,99.90
2023-02-04T01:46:42.610Z,99.90
2023-02-04T01:49:18.414Z,99.90
2023-02-04T01:51:45.144Z,99.90
2023-02-04T01:54:14.849Z,99.90
2023-02-04T01:56:49.622Z,99.90
2023-02-04T01:59:23.086Z,99.90
2023-02-04T02:01:52.468Z,99.90
2023-02-04T02:04:32.286Z,99.90
2023-02-04T02:07:05.639Z,99.90
2023-02-04T02:09:37.734Z,99.90
2023-02-04T02:12:04.610Z,99.90
2023-02-04T02:14:31.376Z,99.90
2023-02-04T02:17:00.546Z,99.90
2023-02-04T02:19:31.954Z,99.90
2023-02-04T02:22:08.663Z,99.90
2023-02-04T02:24:35.465Z,99.90
2023-02-04T02:27:05.926Z,99.90
2023-02-04T02:29:32.645Z,99.90
2023-02-04T02:32:00.138Z,99.90
2023-02-04T02:34:28.098Z,99.90
2023-02-04T02:36:54.981Z,99.90
2023-02-04T02:39:22.073Z,99.90
2023-02-04T02:41:48.876Z,99.90
2023-02-04T02:44:16.497Z,99.90
2023-02-04T02:46:43.482Z,99.90
2023-02-04T02:49:18.164Z,99.90
2023-02-04T02:51:45.606Z,99.90
2023-02-04T02:54:29.944Z,99.90
2023-02-04T02:56:58.090Z,99.90
2023-02-04T02:59:26.094Z,99.90
2023-02-04T03:01:58.100Z,99.90
2023-02-04T03:04:26.230Z,99.90
2023-02-04T03:06:56.613Z,99.90
2023-02-04T03:09:25.876Z,99.90
2023-02-04T03:11:52.845Z,99.90
2023-02-04T03:14:19.684Z,99.90
2023-02-04T03:16:49.081Z,99.90
2023-02-04T03:19:16.450Z,99.90
2023-02-04T03:21:43.543Z,99.90
2023-02-04T03:24:10.429Z,99.90
2023-02-04T03:26:37.151Z,99.90
2023-02-04T03:29:07.849Z,99.90
2023-02-04T03:31:34.748Z,99.90
2023-02-04T03:34:01.592Z,99.90
2023-02-04T03:36:28.260Z,99.90
2023-02-04T03:38:54.916Z,99.90
2023-02-04T03:41:21.744Z,99.90
2023-02-04T03:43:49.175Z,99.90
2023-02-04T03:46:16.338Z,99.90
2023-02-04T03:48:43.104Z,99.90
2023-02-04T03:51:10.146Z,99.90
2023-02-04T03:53:36.969Z,99.90
2023-02-04T03:56:03.797Z,99.90
2023-02-04T03:58:31.843Z,99.90
2023-02-04T04:00:58.605Z,99.90
2023-02-04T04:03:25.276Z,99.90
2023-02-04T04:05:51.903Z,99.90
2023-02-04T04:08:18.588Z,99.90
2023-02-04T04:10:45.190Z,99.90
2023-02-04T04:13:11.846Z,99.90
2023-02-04T04:15:38.531Z,99.90
2023-02-04T04:18:05.395Z,99.90
2023-02-04T04:20:32.382Z,99.90
2023-02-04T04:22:59.244Z,99.90
2023-02-04T04:25:25.870Z,99.90
2023-02-04T04:27:52.618Z,99.90
2023-02-04T04:30:19.482Z,99.90
2023-02-04T04:32:48.972Z,99.90
2023-02-04T04:35:15.783Z,99.90
2023-02-04T04:37:42.440Z,99.90
2023-02-04T04:40:13.413Z,99.90
2023-02-04T04:42:40.070Z,99.90
2023-02-04T04:45:08.875Z,99.90
2023-02-04T04:47:35.517Z,99.90
2023-02-04T04:50:02.388Z,99.90
2023-02-04T04:52:29.026Z,99.90
2023-02-04T04:54:55.680Z,99.90
2023-02-04T04:57:22.325Z,99.90
2023-02-04T04:59:48.982Z,99.90
2023-02-04T05:02:15.638Z,99.90
2023-02-04T05:04:42.308Z,99.90
2023-02-04T05:07:08.959Z,99.90
2023-02-04T05:09:35.607Z,99.90
2023-02-04T05:12:02.778Z,99.90
2023-02-04T05:14:29.547Z,99.90
2023-02-04T05:16:56.217Z,99.90
2023-02-04T05:19:22.867Z,99.90
2023-02-04T05:21:49.499Z,99.90
2023-02-04T05:24:16.113Z,99.90
2023-02-04T05:26:42.800Z,99.90
2023-02-04T05:29:10.771Z,99.90
2023-02-04T05:31:37.555Z,99.90
2023-02-04T05:34:04.336Z,99.90
2023-02-04T05:36:31.038Z,99.90
2023-02-04T05:38:57.706Z,99.90
2023-02-04T05:41:24.372Z,99.90
2023-02-04T05:43:51.015Z,99.90
2023-02-04T05:46:17.698Z,99.90
2023-02-04T05:48:44.342Z,99.90
2023-02-04T05:51:11.004Z,99.90
2023-02-04T05:53:37.645Z,99.90
2023-02-04T05:56:04.456Z,99.90
2023-02-04T05:58:33.496Z,99.90
2023-02-04T06:01:01.578Z,99.90
2023-02-04T06:03:29.211Z,99.90
2023-02-04T06:05:56.219Z,99.90
2023-02-04T06:08:23.373Z,99.90
2023-02-04T06:10:49.993Z,99.90
2023-02-04T06:13:16.669Z,99.90
2023-02-04T06:15:43.326Z,99.90
2023-02-04T06:18:10.105Z,99.90
2023-02-04T06:20:36.737Z,99.90
2023-02-04T06:23:03.435Z,99.90
2023-02-04T06:25:30.057Z,99.90
2023-02-04T06:27:56.862Z,99.90
2023-02-04T06:30:23.698Z,99.90
2023-02-04T06:32:50.353Z,99.90
2023-02-04T06:35:17.810Z,99.90
2023-02-04T06:37:44.486Z,99.90
2023-02-04T06:40:11.969Z,99.90
2023-02-04T06:42:38.782Z,99.90
2023-02-04T06:45:05.927Z,99.90
2023-02-04T06:47:32.602Z,99.90
2023-02-04T06:49:59.246Z,99.90
2023-02-04T06:52:25.946Z,99.90
2023-02-04T06:54:52.617Z,99.90
2023-02-04T06:57:26.445Z,99.90
2023-02-04T06:59:53.080Z,99.90
2023-02-04T07:02:20.068Z,99.90
2023-02-04T07:04:47.792Z,99.90
2023-02-04T07:07:14.537Z,99.90
2023-02-04T07:09:41.521Z,99.90
2023-02-04T07:12:08.214Z,99.90
2023-02-04T07:14:35.016Z,99.90
2023-02-04T07:17:01.692Z,99.90
2023-02-04T07:19:28.343Z,99.90
2023-02-04T07:21:56.891Z,99.90
2023-02-04T07:24:24.068Z,99.90
2023-02-04T07:26:51.070Z,99.90
2023-02-04T07:29:25.122Z,99.90
2023-02-04T07:31:52.949Z,99.90
2023-02-04T07:34:20.360Z,99.90
2023-02-04T07:36:47.165Z,99.90
2023-02-04T07:39:13.911Z,99.90
2023-02-04T07:41:40.617Z,99.90
2023-02-04T07:44:07.371Z,99.90
2023-02-04T07:46:34.097Z,99.90
2023-02-04T07:49:00.888Z,99.90
2023-02-04T07:51:27.991Z,99.90
2023-02-04T07:53:56.210Z,99.90
2023-02-04T07:56:23.028Z,99.90
2023-02-04T07:58:49.679Z,99.90
2023-02-04T08:01:16.951Z,99.90
2023-02-04T08:03:43.740Z,99.90
2023-02-04T08:06:10.491Z,99.90
2023-02-04T08:08:37.149Z,99.90
2023-02-04T08:11:03.766Z,99.90
2023-02-04T08:13:30.453Z,99.90
2023-02-04T08:15:57.149Z,99.90
2023-02-04T08:18:25.214Z,99.90
2023-02-04T08:20:52.016Z,99.90
2023-02-04T08:23:19.130Z,99.90
2023-02-04T08:25:45.734Z,99.90
2023-02-04T08:28:12.474Z,99.90
2023-02-04T08:30:39.280Z,99.90
2023-02-04T08:33:06.185Z,99.90
2023-02-04T08:35:32.807Z,99.90
2023-02-04T08:37:59.427Z,99.90
2023-02-04T08:40:26.104Z,99.90
2023-02-04T08:42:52.747Z,99.90
2023-02-04T08:45:19.403Z,99.90
2023-02-04T08:47:46.211Z,99.90
2023-02-04T08:50:13.062Z,99.90
2023-02-04T08:52:39.754Z,99.90
2023-02-04T08:55:06.774Z,99.90
2023-02-04T08:57:34.972Z,99.90
2023-02-04T09:00:02.113Z,99.90
2023-02-04T09:02:28.945Z,99.90
2023-02-04T09:04:55.598Z,99.90
2023-02-04T09:07:22.473Z,99.90
2023-02-04T09:09:49.164Z,99.90
2023-02-04T09:12:15.821Z,99.90
2023-02-04T09:14:42.488Z,99.90
2023-02-04T09:17:09.250Z,99.90
2023-02-04T09:19:35.904Z,99.90
2023-02-04T09:22:02.540Z,99.90
2023-02-04T09:24:29.173Z,99.90
2023-02-04T09:26:55.939Z,99.90
2023-02-04T09:29:22.723Z,99.90
2023-02-04T09:31:49.523Z,99.90
2023-02-04T09:34:16.207Z,99.90
2023-02-04T09:36:42.846Z,99.90
2023-02-04T09:39:12.707Z,99.90
2023-02-04T09:41:40.124Z,99.90
2023-02-04T09:44:13.359Z,99.90
2023-02-04T09:46:40.311Z,99.90
2023-02-04T09:49:08.986Z,99.90
2023-02-04T09:51:36.082Z,99.90
2023-02-04T09:54:14.261Z,99.90
2023-02-04T09:56:41.470Z,99.90
2023-02-04T09:59:13.374Z,99.90
2023-02-04T10:01:40.123Z,99.90
2023-02-04T10:04:11.794Z,99.90
2023-02-04T10:06:38.885Z,99.90
2023-02-04T10:09:05.591Z,99.90
2023-02-04T10:11:36.579Z,99.90
2023-02-04T10:14:03.303Z,99.90
2023-02-04T10:16:33.949Z,99.90
2023-02-04T10:19:02.995Z,99.90
2023-02-04T10:21:36.661Z,99.90
2023-02-04T10:24:06.133Z,99.90
2023-02-04T10:26:33.220Z,99.90
2023-02-04T10:29:01.351Z,99.90
2023-02-04T10:31:38.396Z,99.90
2023-02-04T10:34:18.416Z,99.90
2023-02-04T10:36:47.651Z,99.90
2023-02-04T10:39:18.288Z,99.90
2023-02-04T10:41:50.533Z,99.90
2023-02-04T10:44:31.533Z,99.90
2023-02-04T10:47:03.195Z,99.90
2023-02-04T10:49:31.701Z,99.90
2023-02-04T10:51:58.679Z,99.90
2023-02-04T10:54:30.801Z,99.90
2023-02-04T10:57:23.182Z,99.90
2023-02-04T10:59:51.298Z,99.90
2023-02-04T11:02:36.752Z,99.90
2023-02-04T11:05:04.593Z,99.90
2023-02-04T11:07:31.287Z,99.90
2023-02-04T11:09:58.090Z,99.90
2023-02-04T11:12:56.860Z,99.90
2023-02-04T11:15:46.615Z,99.90
2023-02-04T11:18:19.823Z,99.90
2023-02-04T11:20:50.909Z,99.90
2023-02-04T11:23:37.915Z,99.90
2023-02-04T11:26:07.701Z,99.90
2023-02-04T11:28:45.893Z,99.90
2023-02-04T11:31:21.732Z,99.90
2023-02-04T11:33:49.850Z,99.90
2023-02-04T11:36:17.567Z,99.90
2023-02-04T11:38:46.333Z,99.90
2023-02-04T11:41:29.380Z,99.90
2023-02-04T11:43:56.478Z,99.90
2023-02-04T11:46:23.925Z,99.90
2023-02-04T11:48:55.860Z,99.90
2023-02-04T11:51:35.336Z,99.90
2023-02-04T11:54:02.004Z,99.90
2023-02-04T11:56:30.146Z,99.90
2023-02-04T11:58:58.378Z,99.90
2023-02-04T12:01:30.880Z,99.90
2023-02-04T12:04:03.780Z,99.90
2023-02-04T12:06:33.032Z,99.90
2023-02-04T12:09:23.754Z,99.90
2023-02-04T12:11:56.449Z,99.90
2023-02-04T12:14:37.951Z,99.90
2023-02-04T12:17:20.814Z,99.90
2023-02-04T12:19:47.549Z,99.90
2023-02-04T12:22:15.676Z,99.90
2023-02-04T12:24:43.879Z,99.90
2023-02-04T12:27:10.492Z,99.90
2023-02-04T12:29:37.103Z,99.90
2023-02-04T12:32:04.002Z,99.90
2023-02-04T12:34:30.619Z,99.90
2023-02-04T12:36:57.438Z,99.90
2023-02-04T12:39:24.041Z,99.90
2023-02-04T12:41:50.674Z,99.90
2023-02-04T12:44:17.441Z,99.90
2023-02-04T12:46:44.267Z,99.90
2023-02-04T12:49:11.348Z,99.90
2023-02-04T12:51:38.024Z,99.90
2023-02-04T12:54:04.775Z,99.90
2023-02-04T12:56:31.620Z,99.90
2023-02-04T12:58:58.733Z,99.90
2023-02-04T13:01:27.088Z,99.90
2023-02-04T13:03:53.730Z,99.90
2023-02-04T13:06:20.327Z,99.90
2023-02-04T13:08:47.348Z,99.90
2023-02-04T13:11:14.042Z,99.90
2023-02-04T13:13:42.874Z,99.90
2023-02-04T13:16:09.640Z,99.90
2023-02-04T13:18:36.307Z,99.90
2023-02-04T13:21:03.362Z,99.90
2023-02-04T13:23:29.980Z,99.90
2023-02-04T13:25:56.607Z,99.90
2023-02-04T13:28:23.321Z,99.90
2023-02-04T13:30:50.020Z,99.90
2023-02-04T13:33:16.755Z,99.90
2023-02-04T13:35:45.185Z,99.90
2023-02-04T13:38:11.850Z,97.80
2023-02-04T13:40:40.263Z,99.20
2023-02-04T13:43:07.104Z,98.00
2023-02-04T13:45:34.080Z,99.90
2023-02-04T13:48:01.229Z,99.90
2023-02-04T13:50:27.998Z,99.90
2023-02-04T13:52:55.934Z,99.90
2023-02-04T13:55:22.851Z,99.80
2023-02-04T13:57:49.501Z,99.90
2023-02-04T14:00:16.314Z,98.30
2023-02-04T14:02:45.116Z,97.50
2023-02-04T14:05:11.785Z,97.60
2023-02-04T14:07:38.497Z,96.60
2023-02-04T14:10:05.600Z,95.90
2023-02-04T14:12:32.321Z,93.90
2023-02-04T14:14:59.335Z,91.80
2023-02-04T14:17:26.494Z,92.80
2023-02-04T14:19:53.269Z,92.70
2023-02-04T14:22:20.052Z,93.00
2023-02-04T14:24:47.543Z,92.20
2023-02-04T14:27:14.464Z,91.20
2023-02-04T14:29:41.076Z,91.50
2023-02-04T14:32:08.416Z,91.30
2023-02-04T14:34:35.140Z,90.40
2023-02-04T14:37:01.909Z,91.30
2023-02-04T14:39:28.598Z,90.70
2023-02-04T14:41:55.199Z,89.60
2023-02-04T14:44:21.856Z,90.40
2023-02-04T14:46:50.555Z,90.60
2023-02-04T14:49:18.830Z,90.00
2023-02-04T14:51:46.588Z,90.30
2023-02-04T14:54:14.668Z,90.60
2023-02-04T14:56:41.326Z,91.10
2023-02-04T14:59:08.026Z,90.50
2023-02-04T15:01:34.685Z,91.00
2023-02-04T15:04:01.592Z,90.80
2023-02-04T15:06:28.257Z,90.90
2023-02-04T15:08:56.037Z,90.60
2023-02-04T15:11:24.428Z,91.10
2023-02-04T15:13:52.325Z,91.10
2023-02-04T15:16:20.597Z,91.50
2023-02-04T15:18:48.902Z,90.80
2023-02-04T15:21:17.493Z,90.30
2023-02-04T15:23:47.196Z,90.10
2023-02-04T15:26:14.847Z,88.60
2023-02-04T15:28:41.571Z,88.80
2023-02-04T15:31:08.341Z,90.70
2023-02-04T15:33:35.713Z,89.70
2023-02-04T15:36:04.235Z,91.20
2023-02-04T15:38:31.005Z,91.20
2023-02-04T15:40:57.935Z,90.70
2023-02-04T15:43:24.727Z,91.70
2023-02-04T15:45:51.392Z,93.20
2023-02-04T15:48:19.559Z,93.40
2023-02-04T15:50:46.246Z,94.60
2023-02-04T15:53:12.904Z,95.30
2023-02-04T15:55:39.501Z,95.00
2023-02-04T15:58:06.169Z,94.80
2023-02-04T16:00:33.069Z,94.40
2023-02-04T16:03:00.094Z,95.40
2023-02-04T16:05:26.894Z,94.30
2023-02-04T16:07:53.543Z,94.80
2023-02-04T16:10:20.909Z,94.00
2023-02-04T16:12:48.399Z,94.30
2023-02-04T16:15:15.589Z,93.90
2023-02-04T16:17:42.244Z,94.10
2023-02-04T16:20:10.226Z,94.10
2023-02-04T16:22:37.223Z,94.00
2023-02-04T16:25:06.758Z,93.80
2023-02-04T16:27:33.874Z,93.70
2023-02-04T16:30:01.686Z,92.90
2023-02-04T16:32:28.681Z,92.90
2023-02-04T16:34:56.764Z,92.70
2023-02-04T16:37:23.536Z,92.70
2023-02-04T16:39:52.492Z,92.50
2023-02-04T16:42:24.848Z,92.60
2023-02-04T16:44:52.143Z,93.20
2023-02-04T16:47:20.110Z,92.60
2023-02-04T16:49:49.995Z,91.90
2023-02-04T16:52:18.366Z,93.10
2023-02-04T16:55:39.161Z,92.00
2023-02-04T16:58:06.578Z,90.50
2023-02-04T17:00:33.173Z,92.00
2023-02-04T17:02:59.974Z,91.50
2023-02-04T17:05:26.612Z,90.00
2023-02-04T17:07:54.671Z,91.10
2023-02-04T17:10:41.275Z,91.20
2023-02-04T17:13:07.912Z,91.20
2023-02-04T17:15:34.863Z,91.30
2023-02-04T17:18:01.755Z,90.50
2023-02-04T17:20:28.359Z,90.80
2023-02-04T17:22:56.377Z,90.00
2023-02-04T17:25:23.384Z,90.80
2023-02-04T17:27:51.534Z,89.90
2023-02-04T17:30:19.858Z,90.50
2023-02-04T17:32:46.873Z,90.90
2023-02-04T17:35:13.676Z,90.50
2023-02-04T17:37:40.322Z,90.40
2023-02-04T17:40:07.310Z,90.40
2023-02-04T17:42:33.935Z,89.50
2023-02-04T17:45:00.571Z,90.40
2023-02-04T17:47:27.231Z,88.90
2023-02-04T17:49:53.957Z,90.50
2023-02-04T17:52:20.854Z,90.30
2023-02-04T17:54:47.474Z,90.40
2023-02-04T17:57:21.055Z,89.00
2023-02-04T17:59:48.821Z,90.40
2023-02-04T18:02:29.576Z,91.40
2023-02-04T18:05:02.732Z,91.00
2023-02-04T18:07:29.433Z,91.20
2023-02-04T18:10:04.921Z,91.60
2023-02-04T18:12:31.588Z,91.60
2023-02-04T18:14:59.079Z,92.10
2023-02-04T18:17:25.790Z,90.70
2023-02-04T18:19:52.964Z,91.90
2023-02-04T18:22:19.722Z,90.60
2023-02-04T18:24:48.849Z,90.00
2023-02-04T18:27:24.640Z,91.20
2023-02-04T18:29:55.367Z,89.20
2023-02-04T18:32:48.991Z,88.40
2023-02-04T18:35:37.147Z,89.40
2023-02-04T18:38:23.777Z,89.70
2023-02-04T18:41:17.800Z,89.10
2023-02-04T18:43:50.316Z,88.70
2023-02-04T18:46:35.573Z,88.50
2023-02-04T18:49:28.843Z,87.90
2023-02-04T18:51:57.623Z,87.80
2023-02-04T18:54:37.311Z,87.90
2023-02-04T18:57:13.581Z,87.70
2023-02-04T18:59:41.123Z,87.40
2023-02-04T19:02:28.377Z,87.20
2023-02-04T19:05:11.301Z,86.80
2023-02-04T19:07:39.363Z,86.10
2023-02-04T19:10:28.172Z,86.40
2023-02-04T19:13:19.249Z,85.90
2023-02-04T19:15:52.683Z,86.00
2023-02-04T19:18:45.802Z,84.40
2023-02-04T19:21:27.348Z,85.60
2023-02-04T19:24:16.775Z,86.90
2023-02-04T19:27:03.506Z,84.70
2023-02-04T19:29:41.210Z,82.20
2023-02-04T19:32:29.260Z,84.90
2023-02-04T19:35:01.840Z,85.90
2023-02-04T19:37:40.200Z,84.70
2023-02-04T19:40:36.128Z,85.70
2023-02-04T19:43:23.581Z,84.30
2023-02-04T19:45:51.217Z,83.90
2023-02-04T19:48:36.627Z,84.20
2023-02-04T19:51:26.204Z,82.60
2023-02-04T19:54:02.356Z,84.60
2023-02-04T19:56:37.067Z,86.90
2023-02-04T19:59:23.666Z,85.60
2023-02-04T20:02:32.365Z,85.60
2023-02-04T20:04:59.782Z,86.70
2023-02-04T20:07:28.584Z,85.50
2023-02-04T20:10:00.538Z,86.20
2023-02-04T20:12:29.167Z,87.50
2023-02-04T20:15:00.450Z,83.60
2023-02-04T20:17:39.617Z,87.60
2023-02-04T20:20:29.821Z,86.90
2023-02-04T20:22:57.423Z,87.90
2023-02-04T20:25:38.308Z,86.80
2023-02-04T20:28:16.038Z,87.00
2023-02-04T20:30:42.755Z,87.80
2023-02-04T20:33:31.218Z,89.70
2023-02-04T20:36:25.990Z,88.80
2023-02-04T20:39:11.370Z,88.50
2023-02-04T20:41:38.657Z,88.10
2023-02-04T20:44:27.344Z,87.10
2023-02-04T20:47:16.906Z,86.00
2023-02-04T20:49:47.028Z,86.90
2023-02-04T20:52:43.561Z,85.20
2023-02-04T20:55:33.201Z,87.40
2023-02-04T20:58:16.303Z,86.50
2023-02-04T21:00:43.475Z,88.10
2023-02-04T21:03:13.202Z,85.90
2023-02-04T21:05:40.425Z,87.60
2023-02-04T21:08:34.605Z,84.30
2023-02-04T21:11:01.575Z,84.10
2023-02-04T21:13:28.254Z,85.40
2023-02-04T21:15:54.963Z,86.00
2023-02-04T21:18:21.655Z,86.30
2023-02-04T21:20:48.312Z,89.10
2023-02-04T21:23:14.955Z,87.00
2023-02-04T21:25:41.613Z,87.00
2023-02-04T21:28:08.372Z,84.00
2023-02-04T21:30:35.031Z,85.30
2023-02-04T21:33:02.165Z,84.80
2023-02-04T21:35:28.858Z,84.30
2023-02-04T21:37:59.992Z,83.20
2023-02-04T21:40:26.956Z,87.40
2023-02-04T21:42:54.105Z,88.80
2023-02-04T21:45:23.408Z,85.20
2023-02-04T21:47:51.036Z,89.90
2023-02-04T21:50:19.470Z,88.80
2023-02-04T21:52:46.714Z,86.90
2023-02-04T21:55:15.490Z,88.90
2023-02-04T21:57:43.091Z,89.10
2023-02-04T22:00:10.834Z,87.00
2023-02-04T22:02:37.465Z,87.70
2023-02-04T22:05:07.362Z,88.40
2023-02-04T22:07:35.006Z,90.00
2023-02-04T22:10:02.452Z,88.50
2023-02-04T22:12:29.239Z,89.20
2023-02-04T22:14:55.911Z,89.50
2023-02-04T22:17:22.858Z,84.10
2023-02-04T22:19:49.474Z,86.70
2023-02-04T22:22:19.409Z,90.40
2023-02-04T22:24:46.228Z,89.70
2023-02-04T22:27:13.038Z,90.50
2023-02-04T22:29:43.030Z,90.70
2023-02-04T22:32:09.687Z,89.50
2023-02-04T22:34:36.501Z,91.30
2023-02-04T22:37:03.172Z,91.00
2023-02-04T22:39:29.799Z,92.10
2023-02-04T22:44:23.483Z,91.90
2023-02-04T22:46:50.243Z,91.80
2023-02-04T22:49:16.958Z,92.20
2023-02-04T22:51:43.594Z,92.70
2023-02-04T22:54:10.539Z,92.30
2023-02-04T22:56:37.223Z,91.10
2023-02-04T22:59:04.261Z,92.30
2023-02-04T23:01:30.845Z,91.70
2023-02-04T23:03:57.497Z,92.10
2023-02-04T23:06:24.160Z,91.60
2023-02-04T23:08:53.281Z,93.10
2023-02-04T23:11:23.078Z,92.80
2023-02-04T23:16:17.460Z,93.00
2023-02-04T23:18:44.268Z,93.00
2023-02-04T23:21:11.230Z,92.80
2023-02-04T23:23:37.924Z,93.10
2023-02-04T23:26:05.033Z,93.40
2023-02-04T23:28:31.810Z,93.70
2023-02-04T23:30:58.738Z,92.40
2023-02-04T23:33:25.418Z,92.70
2023-02-04T23:35:52.311Z,93.80
2023-02-04T23:38:18.961Z,93.30
2023-02-04T23:40:45.640Z,94.50
2023-02-04T23:43:12.274Z,93.80
2023-02-04T23:48:07.402Z,92.70
2023-02-04T23:50:34.090Z,95.20
2023-02-04T23:53:00.807Z,94.60
2023-02-04T23:55:27.514Z,94.80
2023-02-04T23:57:54.230Z,95.50
